Flight Track Log - Related Links

Times and Time Zones

All times are in EDT time to prevent confusion due to time zone crossing. See the UAL4236 flight status page for this flight to view local times or setup timezone preferences in your user account.

Time Position Orientation Groundspeed Altitude Reporting Facility
EDT Latitude Longitude Course Direction KTS MPH feet Rate Location/Type
Tue 10:17:37 AM 29.9469 -95.3431 177° South 161 185 1,200  Level Houston Center
Tue 10:18:44 AM 29.9106 -95.4053 236° Southwest 247 284 3,100 1,608 Climbing Houston Center
Tue 10:19:14 AM 29.9039 -95.4269 250° West 237 273 3,800 2,571 Climbing Houston Center
Tue 10:19:40 AM 29.8850 -95.4686 242° Southwest 234 269 5,500 2,419 Climbing Houston Center
Tue 10:20:16 AM 29.8725 -95.5083 250° West 235 270 6,300 1,701 Climbing Houston Center
Tue 10:20:47 AM 29.8906 -95.5544 294° West 281 323 7,400 1,645 Climbing Houston Center
Tue 10:21:18 AM 29.9028 -95.5892 292° West 272 313 8,000 1,548 Climbing Houston Center
Tue 10:21:49 AM 29.9214 -95.6400 293° West 283 326 9,000 1,645 Climbing Houston Center
Tue 10:22:00 AM 30.0402 -95.8817 276° West  Level FlightAware Approximate
Tue 10:22:20 AM 29.9336 -95.6742 292° West 285 328 9,700  Level Houston Center
Tue 10:22:50 AM 29.9519 -95.7256 292° West 292 336 10,500 968 Climbing Houston Center
Tue 10:23:22 AM 29.9642 -95.7617 291° West 293 337 10,700 511 Climbing Houston Center
Tue 10:24:24 AM 29.9994 -95.8611 292° West 332 382 11,300 871 Climbing Houston Center
Tue 10:25:26 AM 30.0439 -95.9883 292° West 356 410 12,500 1,056 Climbing Houston Center
Tue 10:26:29 AM 30.0744 -96.0822 291° West 360 414 13,500 1,200 Climbing Houston Center
Tue 10:27:31 AM 30.0953 -96.2186 280° West 361 415 15,000 1,210 Climbing Houston Center
Tue 10:28:33 AM 30.1131 -96.3317 280° West 362 417 16,000 1,065 Climbing Houston Center
Tue 10:29:35 AM 30.1319 -96.4586 280° West 365 420 17,200 1,113 Climbing Houston Center
Tue 10:30:37 AM 30.1500 -96.5769 280° West 369 425 18,300 1,065 Climbing Houston Center
Tue 10:31:39 AM 30.1683 -96.6983 280° West 375 432 19,400 1,161 Climbing Houston Center
Tue 10:32:41 AM 30.1869 -96.8175 280° West 374 430 20,700 1,210 Climbing Houston Center
Tue 10:33:43 AM 30.2039 -96.9389 279° West 375 432 21,900 1,065 Climbing Houston Center
Tue 10:34:45 AM 30.2219 -97.0586 280° West 375 432 22,900 912 Climbing Houston Center
Tue 10:35:48 AM 30.2394 -97.1803 279° West 379 436 23,800 864 Climbing Houston Center
Tue 10:36:50 AM 30.2572 -97.3033 280° West 382 440 24,700 1,065 Climbing Houston Center
Tue 10:37:52 AM 30.2789 -97.4472 280° West 383 441 26,000 1,113 Climbing Houston Center
Tue 10:38:54 AM 30.2956 -97.5689 279° West 380 437 27,000 968 Climbing Houston Center
Tue 10:39:56 AM 30.3128 -97.6892 279° West 374 430 28,000 1,016 Climbing Houston Center
Tue 10:40:58 AM 30.3308 -97.8081 280° West 372 428 29,100 1,016 Climbing Houston Center
Tue 10:42:00 AM 30.3469 -97.9258 279° West 367 422 30,100 1,008 Climbing Houston Center
Tue 10:43:03 AM 30.3625 -98.0422 279° West 365 420 31,200 1,008 Climbing Houston Center
Tue 10:44:05 AM 30.3792 -98.1586 279° West 363 418 32,200 1,065 Climbing Houston Center
Tue 10:45:07 AM 30.3969 -98.2936 279° West 360 414 33,400 1,065 Climbing Houston Center
Tue 10:46:09 AM 30.4125 -98.4061 279° West 351 404 34,400 1,016 Climbing Houston Center
Tue 10:47:11 AM 30.4275 -98.5167 279° West 345 397 35,500 774 Climbing Houston Center
Tue 10:48:13 AM 30.4417 -98.6250 279° West 338 389 36,000 242 Climbing Houston Center
Tue 10:49:15 AM 30.4589 -98.7489 279° West 349 402 36,000  Level Houston Center
Tue 10:50:17 AM 30.4756 -98.8586 280° West 363 418 36,000  Level Houston Center
Tue 10:51:20 AM 30.4892 -98.9781 278° West 376 433 36,000  Level Houston Center
Tue 10:52:22 AM 30.5069 -99.1044 279° West 390 449 36,000  Level Houston Center
Tue 10:53:24 AM 30.5272 -99.2561 279° West 400 460 36,000  Level Houston Center
Tue 10:54:26 AM 30.5444 -99.3825 279° West 399 459 36,000  Level Houston Center
Tue 10:55:28 AM 30.5600 -99.5053 278° West 388 447 36,000  Level Houston Center
Tue 10:56:30 AM 30.5747 -99.6242 278° West 378 435 36,000  Level Houston Center
Tue 10:57:32 AM 30.5900 -99.7483 278° West 388 447 36,000  Level Houston Center
Tue 10:58:35 AM 30.6144 -99.8975 281° West 401 461 36,000  Level Houston Center
Tue 10:59:37 AM 30.6414 -100.0244 284° West 405 466 36,000 -48 Level Houston Center
Tue 11:00:39 AM 30.6650 -100.1456 283° West 390 449 35,900  Descending Houston Center
Tue 11:01:41 AM 30.6911 -100.2703 284° West 399 459 36,000 48 Climbing Houston Center
Tue 11:02:43 AM 30.7156 -100.3953 283° West 402 463 36,000  Level Houston Center
Tue 11:03:45 AM 30.7428 -100.5369 283° West 389 448 36,000  Level Houston Center
Tue 11:04:47 AM 30.7667 -100.6594 283° West 387 445 36,000  Level Houston Center
Tue 11:05:49 AM 30.7908 -100.7822 283° West 391 450 36,000  Level Houston Center
Tue 11:06:51 AM 30.8156 -100.9047 283° West 390 449 36,000 -48 Level Houston Center
Tue 11:07:54 AM 30.8406 -101.0286 283° West 398 458 35,900  Descending Houston Center
Tue 11:08:56 AM 30.8625 -101.1469 282° West 383 441 36,000 48 Climbing Houston Center
Tue 11:09:58 AM 30.8908 -101.2900 283° West 382 440 36,000  Level Houston Center
Tue 11:10:46 AM 30.9069 -101.3844 281° West 384 442 36,000  Level Albuquerque Center
Tue 11:11:48 AM 30.9303 -101.5075 282° West 387 445 36,000  Level Albuquerque Center
Tue 11:12:51 AM 30.9533 -101.6286 283° West 386 444 36,000  Level Albuquerque Center
Tue 11:13:53 AM 30.9764 -101.7483 283° West 383 441 36,000  Level Albuquerque Center
Tue 11:14:55 AM 30.9992 -101.8711 282° West 383 441 36,000  Level Albuquerque Center
Tue 11:15:57 AM 31.0269 -102.0203 282° West 393 452 36,000  Level Albuquerque Center
Tue 11:16:59 AM 31.0469 -102.1322 282° West 365 420 36,000  Level Albuquerque Center
Tue 11:18:01 AM 31.0686 -102.2436 283° West 354 407 36,000  Level Albuquerque Center
Tue 11:19:03 AM 31.0900 -102.3594 282° West 362 417 36,000  Level Albuquerque Center
Tue 11:20:05 AM 31.1106 -102.4758 282° West 366 421 36,000  Level Albuquerque Center
Tue 11:21:07 AM 31.1322 -102.5981 282° West 364 419 36,000  Level Albuquerque Center
Tue 11:22:09 AM 31.1536 -102.7161 282° West 368 423 36,000  Level Albuquerque Center
Tue 11:23:11 AM 31.1756 -102.8392 282° West 381 438 36,000  Level Albuquerque Center
Tue 11:24:13 AM 31.2022 -102.9864 282° West 385 443 36,000  Level Albuquerque Center
Tue 11:25:15 AM 31.2242 -103.1067 282° West 383 441 36,000  Level Albuquerque Center
Tue 11:26:17 AM 31.2422 -103.2161 281° West 355 409 36,000 -435 Level Albuquerque Center
Tue 11:27:19 AM 31.2611 -103.3286 281° West 351 404 35,100 -1,355 Descending Albuquerque Center
Tue 11:28:21 AM 31.2825 -103.4442 282° West 359 413 33,200 -2,323 Descending Albuquerque Center
Tue 11:29:23 AM 31.3025 -103.5642 281° West 371 427 30,300 -2,516 Descending Albuquerque Center
Tue 11:30:25 AM 31.3278 -103.7161 281° West 391 450 28,000 -1,113 Descending Albuquerque Center
Tue 11:31:27 AM 31.3508 -103.8458 282° West 396 456 28,000  Level Albuquerque Center
Tue 11:32:29 AM 31.3719 -103.9689 281° West 389 448 28,000  Level Albuquerque Center
Tue 11:33:31 AM 31.3931 -104.0911 281° West 386 444 28,000  Level Albuquerque Center
Tue 11:34:33 AM 31.4128 -104.2106 281° West 379 436 28,000  Level Albuquerque Center
Tue 11:35:35 AM 31.4331 -104.3331 281° West 382 440 28,000 -48 Level Albuquerque Center
Tue 11:36:37 AM 31.4539 -104.4572 281° West 388 447 27,900  Descending Albuquerque Center
Tue 11:37:39 AM 31.4686 -104.6056 277° West 386 444 28,000 48 Climbing Albuquerque Center
Tue 11:38:41 AM 31.4831 -104.7264 278° West 383 441 28,000 -484 Level Albuquerque Center
Tue 11:39:43 AM 31.4942 -104.8414 276° West 374 430 27,000 -1,210 Descending Albuquerque Center
Tue 11:40:45 AM 31.5064 -104.9564 277° West 366 421 25,500 -1,403 Descending Albuquerque Center
Tue 11:41:47 AM 31.5169 -105.0694 276° West 360 414 24,100 -1,548 Descending Albuquerque Center
Tue 11:42:49 AM 31.5306 -105.2047 277° West 354 407 22,300 -1,548 Descending Albuquerque Center
Tue 11:43:51 AM 31.5425 -105.3172 277° West 352 405 20,900 -1,576 Descending Albuquerque Center
Tue 11:44:47 AM 31.5503 -105.4350 274° West 358 412 19,200 -1,724 Descending Albuquerque Center
Tue 11:45:18 AM 31.5556 -105.4861 277° West 354 407 18,400 -1,791 Descending Albuquerque Center
Tue 11:45:54 AM 31.5636 -105.5461 279° West 349 402 17,200 -2,000 Descending Albuquerque Center
Tue 11:46:18 AM 31.5664 -105.6006 273° West 347 399 16,400 -1,742 Descending Albuquerque Center
Tue 11:46:56 AM 31.5753 -105.6553 281° West 340 391 15,400 -1,869 Descending Albuquerque Center
Tue 11:47:19 AM 31.5789 -105.7122 274° West 324 373 14,500 -1,645 Descending Albuquerque Center
Tue 11:47:58 AM 31.5844 -105.7594 278° West 325 374 13,700 -1,800 Descending Albuquerque Center
Tue 11:48:19 AM 31.5961 -105.8153 284° West 319 367 12,700 -1,645 Descending Albuquerque Center
Tue 11:49:00 AM 31.6258 -105.8744 301° West 325 374 12,000 -787 Descending Albuquerque Center
Tue 11:49:20 AM 31.6408 -105.9064 299° West 323 372 11,900 -1,355 Descending Albuquerque Center
Tue 11:50:02 AM 31.6817 -105.9494 318° Northwest 321 369 10,600 -1,770 Descending Albuquerque Center
Tue 11:50:21 AM 31.7094 -105.9664 333° Northwest 320 368 10,100 -677 Descending Albuquerque Center
Tue 11:51:04 AM 31.7556 -105.9972 330° Northwest 302 348 9,900 -500 Descending Albuquerque Center
Tue 11:51:21 AM 31.7778 -106.0114 332° Northwest 276 318 9,600 -968 Descending Albuquerque Center
Tue 11:52:06 AM 31.8022 -106.0483 308° West 232 267 8,900 -984 Descending Albuquerque Center
Tue 11:52:22 AM 31.7994 -106.0711 262° West 189 217 8,600 -968 Descending Albuquerque Center
Tue 11:53:08 AM 31.7947 -106.1097 262° West 193 222 7,900 -889 Descending Albuquerque Center
Tue 11:54:10 AM 31.7903 -106.1653 265° West 174 200 7,000 -871 Descending Albuquerque Center
Tue 11:55:12 AM 31.7942 -106.2289 274° West 163 188 6,100 -829 Descending Albuquerque Center
Tue 11:56:13 AM 31.7961 -106.2753 273° West 148 170 5,300 -787 Descending Albuquerque Center

Login

Don't have an account? Register now (free) for customized features, flight alerts, and more!